Time;durP1;ratioP1;P1;durP2;ratioP2;P2;SDS_P1;SDS_P2;PMS_P1;PMS_P2;Temp;Humidity;BMP_temperature;BMP_pressure;BME280_temperature;BME280_humidity;BME280_pressure;Samples;Min_cycle;Max_cycle;Signal;HPM_P1;HPM_P2
2022/05/22 00:01:05;;;;;;;0.40;0.40;;;;;;;15.76;82.08;101065.41;5008539;28;20037;-63
2022/05/22 00:03:30;;;;;;;0.63;0.60;;;;;;;15.71;82.58;101060.34;5009511;28;20117;-63
2022/05/22 00:05:56;;;;;;;0.38;0.30;;;;;;;15.66;82.58;101065.34;5010601;28;20037;-63
2022/05/22 00:08:21;;;;;;;0.52;0.32;;;;;;;15.65;82.84;101063.78;5008804;28;20038;-63
2022/05/22 00:10:49;;;;;;;1.00;0.68;;;;;;;15.64;82.63;101071.13;5001815;28;20077;-64
2022/05/22 00:13:15;;;;;;;0.73;0.55;;;;;;;15.61;82.81;101073.84;5007552;28;20023;-63
2022/05/22 00:16:36;;;;;;;0.45;0.45;;;;;;;15.54;83.39;101066.44;4996464;28;20045;-63
2022/05/22 00:18:26;;;;;;;3.92;0.40;;;;;;;15.53;83.34;101064.06;5012801;28;20084;-63
2022/05/22 00:20:52;;;;;;;2.28;0.45;;;;;;;15.51;83.40;101059.03;4977044;28;20474;-64
2022/05/22 00:23:17;;;;;;;0.38;0.38;;;;;;;15.43;84.03;101056.66;5001343;28;20076;-64
2022/05/22 00:25:42;;;;;;;1.05;0.52;;;;;;;15.45;83.83;101062.50;5012965;28;20042;-63
2022/05/22 00:28:08;;;;;;;0.80;0.52;;;;;;;15.34;84.29;101048.81;5013934;28;20030;-63
2022/05/22 00:30:33;;;;;;;1.10;0.70;;;;;;;15.40;84.32;101058.16;5011340;28;20041;-63
2022/05/22 00:33:00;;;;;;;0.95;0.50;;;;;;;15.33;84.22;101052.66;5013493;28;20037;-64
2022/05/22 00:35:26;;;;;;;1.67;0.70;;;;;;;15.33;84.26;101050.72;5013397;28;20568;-64
2022/05/22 00:37:51;;;;;;;0.43;0.43;;;;;;;15.25;85.00;101056.50;4996228;28;20124;-64
2022/05/22 00:40:17;;;;;;;0.63;0.45;;;;;;;15.32;84.16;101057.34;5011353;28;20048;-64
2022/05/22 00:42:45;;;;;;;1.10;0.47;;;;;;;15.36;84.10;101057.34;5012731;28;20427;-64
2022/05/22 00:45:12;;;;;;;1.58;0.50;;;;;;;15.33;84.39;101052.66;5013400;28;20045;-63
2022/05/22 00:47:37;;;;;;;3.97;0.60;;;;;;;15.26;84.54;101053.41;4995691;28;20046;-63
2022/05/22 00:50:09;;;;;;;0.32;0.28;;;;;;;15.26;84.72;101053.41;4982508;28;20035;-64
2022/05/22 00:52:43;;;;;;;1.60;0.30;;;;;;;15.28;84.66;101053.03;4979476;28;20060;-63
2022/05/22 00:55:16;;;;;;;0.38;0.38;;;;;;;15.28;84.72;101053.03;4993972;28;20041;-64
2022/05/22 00:57:47;;;;;;;1.60;0.85;;;;;;;15.27;84.66;101054.19;5012276;28;20034;-64
2022/05/22 01:00:16;;;;;;;2.22;0.73;;;;;;;15.20;85.42;101048.69;5008334;28;20061;-63
2022/05/22 01:05:35;;;;;;;1.63;0.40;;;;;;;15.13;85.35;101051.34;4991982;28;20030;-64
2022/05/22 01:08:02;;;;;;;2.08;0.47;;;;;;;15.14;85.27;101045.53;4995615;28;20473;-63
2022/05/22 01:10:44;;;;;;;1.40;0.55;;;;;;;15.13;85.83;101048.63;4994604;28;20509;-64
2022/05/22 01:13:12;;;;;;;0.50;0.30;;;;;;;15.07;85.72;101042.78;4993573;28;20160;-64
2022/05/22 01:15:38;;;;;;;0.90;0.63;;;;;;;15.00;86.16;101041.94;4995348;28;20026;-64
2022/05/22 01:18:03;;;;;;;3.13;1.48;;;;;;;14.94;87.03;101038.03;4995114;28;20419;-64
2022/05/22 01:20:29;;;;;;;0.43;0.43;;;;;;;14.94;86.80;101043.44;4995586;28;20080;-64
2022/05/22 01:22:55;;;;;;;0.75;0.50;;;;;;;14.90;86.79;101039.91;4994738;28;20044;-63
2022/05/22 01:25:20;;;;;;;1.50;1.40;;;;;;;14.88;87.00;101053.06;5008226;28;20439;-63
2022/05/22 01:27:46;;;;;;;3.35;0.55;;;;;;;14.86;86.91;101044.53;4994066;28;20029;-64
2022/05/22 01:30:27;;;;;;;6.07;0.75;;;;;;;14.85;87.40;101053.81;5011535;28;20038;-63
2022/05/22 01:33:03;;;;;;;0.55;0.55;;;;;;;14.79;87.47;101039.06;5006334;28;20036;-63
2022/05/22 01:35:29;;;;;;;0.45;0.43;;;;;;;14.70;88.03;101042.06;5011433;28;20104;-63
2022/05/22 01:37:59;;;;;;;0.80;0.52;;;;;;;14.70;87.96;101044.75;4994864;28;20025;-63
2022/05/22 01:40:25;;;;;;;3.35;0.60;;;;;;;14.62;88.79;101050.47;4995334;28;20125;-64
2022/05/22 01:42:52;;;;;;;0.50;0.30;;;;;;;14.62;88.32;101034.22;4984319;28;20026;-64
2022/05/22 01:45:20;;;;;;;0.70;0.70;;;;;;;14.62;88.40;101034.22;4993785;28;20038;-63
2022/05/22 01:47:46;;;;;;;2.17;0.70;;;;;;;14.52;88.54;101029.47;4994570;28;20038;-64
2022/05/22 01:50:12;;;;;;;0.70;0.70;;;;;;;14.50;88.32;101039.91;5011718;28;20808;-63
2022/05/22 01:52:39;;;;;;;0.57;0.50;;;;;;;14.44;88.51;101029.38;5010119;28;20053;-64
2022/05/22 01:55:08;;;;;;;3.08;0.50;;;;;;;14.38;88.24;101027.41;4993963;28;20057;-64
2022/05/22 01:57:33;;;;;;;1.02;0.55;;;;;;;14.30;88.70;101031.94;4994290;28;20038;-64
2022/05/22 01:59:59;;;;;;;0.40;0.40;;;;;;;14.30;88.76;101029.22;5011262;28;20036;-64
2022/05/22 02:02:26;;;;;;;1.20;0.52;;;;;;;14.23;88.76;101018.28;4991256;28;20400;-63
2022/05/22 02:04:55;;;;;;;0.95;0.57;;;;;;;14.16;88.86;101020.94;4992722;28;20091;-63
2022/05/22 02:10:09;;;;;;;1.00;0.57;;;;;;;14.11;88.98;101031.31;5010425;28;20034;-63
2022/05/22 02:12:34;;;;;;;1.00;0.60;;;;;;;14.09;89.00;101033.63;5010720;28;20040;-64
2022/05/22 02:15:03;;;;;;;2.33;0.70;;;;;;;14.09;89.33;101034.38;4993202;28;20026;-64
2022/05/22 02:17:29;;;;;;;1.27;0.50;;;;;;;14.06;89.39;101029.72;4992277;28;20116;-64
2022/05/22 02:19:57;;;;;;;2.30;1.45;;;;;;;14.08;89.50;101026.63;5012033;28;20591;-64
2022/05/22 02:22:44;;;;;;;0.82;0.75;;;;;;;14.08;89.50;101026.63;5011888;28;20095;-64
2022/05/22 02:25:11;;;;;;;2.60;0.75;;;;;;;14.17;90.07;101032.53;4987188;28;20503;-63
2022/05/22 02:27:38;;;;;;;4.22;1.10;;;;;;;14.23;89.85;101029.13;4990887;28;20083;-63
2022/05/22 02:30:06;;;;;;;2.38;1.10;;;;;;;14.26;90.20;101028.41;4978546;28;20606;-64
2022/05/22 02:32:32;;;;;;;1.48;0.85;;;;;;;14.33;90.41;101022.31;4957686;28;20512;-64
2022/05/22 02:34:57;;;;;;;5.05;0.77;;;;;;;14.36;90.46;101027.75;4984887;28;20030;-63
2022/05/22 02:37:22;;;;;;;1.92;0.85;;;;;;;14.42;90.62;101025.47;5010168;28;20041;-64
2022/05/22 02:39:49;;;;;;;2.15;0.90;;;;;;;14.48;90.63;101018.59;4993099;28;20029;-63
2022/05/22 02:42:35;;;;;;;7.40;1.48;;;;;;;14.50;90.78;101021.69;5008850;28;20200;-64
2022/05/22 02:45:01;;;;;;;7.22;1.23;;;;;;;14.54;90.99;101019.81;5003455;28;20047;-63
2022/05/22 02:47:26;;;;;;;1.83;1.08;;;;;;;14.57;90.79;101019.09;4992351;28;20535;-63
2022/05/22 02:49:53;;;;;;;2.13;1.38;;;;;;;14.62;90.77;101023.38;5010547;28;20548;-64
2022/05/22 02:52:18;;;;;;;2.85;0.75;;;;;;;14.59;91.17;101021.41;5008354;28;20426;-63
2022/05/22 02:54:43;;;;;;;2.88;1.10;;;;;;;14.61;91.05;101019.13;5007351;28;20038;-64
2022/05/22 02:57:11;;;;;;;4.72;0.93;;;;;;;14.62;91.32;101010.59;4991146;28;20041;-63
2022/05/22 02:59:52;;;;;;;1.77;1.10;;;;;;;14.63;91.29;101014.09;4993038;28;20033;-63
2022/05/22 03:02:27;;;;;;;1.65;1.23;;;;;;;14.60;91.67;101017.53;4993065;28;20096;-63
2022/05/22 03:04:54;;;;;;;2.00;0.68;;;;;;;14.64;91.70;101011.00;5009825;28;20321;-64
2022/05/22 03:07:20;;;;;;;2.45;1.20;;;;;;;14.62;91.75;101017.94;4987830;28;20030;-65
2022/05/22 03:09:47;;;;;;;1.30;0.90;;;;;;;14.67;91.40;101015.69;4991888;28;20076;-63
2022/05/22 03:12:17;;;;;;;0.98;0.68;;;;;;;14.64;91.45;101019.16;5010249;28;20042;-63
2022/05/22 03:14:50;;;;;;;4.72;0.75;;;;;;;14.66;91.75;101013.34;5008169;28;20034;-63
2022/05/22 03:17:17;;;;;;;1.10;0.90;;;;;;;14.59;91.90;101013.28;4973617;28;20117;-63
2022/05/22 03:19:47;;;;;;;2.38;1.10;;;;;;;14.62;92.06;101021.44;5008704;28;20543;-64
2022/05/22 03:22:13;;;;;;;1.40;1.20;;;;;;;14.67;91.89;101020.34;4992213;28;20084;-64
2022/05/22 03:24:41;;;;;;;2.30;0.80;;;;;;;14.69;91.24;101029.63;4991996;28;20026;-63
2022/05/22 03:27:10;;;;;;;1.23;0.90;;;;;;;14.67;91.92;101034.69;4987096;28;20034;-63
2022/05/22 03:29:38;;;;;;;6.28;0.90;;;;;;;14.62;92.44;101036.91;5008806;28;20484;-63
2022/05/22 03:32:04;;;;;;;7.15;1.20;;;;;;;14.71;92.30;101032.75;4992062;28;20076;-63
2022/05/22 03:34:30;;;;;;;1.48;1.10;;;;;;;14.71;92.08;101040.88;4992031;28;20033;-63
2022/05/22 03:36:56;;;;;;;2.25;1.20;;;;;;;14.69;91.80;101023.47;5006950;28;20050;-64
2022/05/22 03:39:22;;;;;;;2.47;0.95;;;;;;;14.72;92.38;101022.69;4992039;28;20052;-63
2022/05/22 03:41:50;;;;;;;7.45;1.45;;;;;;;14.76;91.99;101034.34;5008450;28;20064;-64
2022/05/22 03:44:20;;;;;;;7.15;1.63;;;;;;;14.72;92.45;101031.63;5002587;28;20030;-63
2022/05/22 03:46:48;;;;;;;1.83;1.00;;;;;;;-144.12;100.00;72078.50;5009136;28;20046;-64
2022/05/22 03:49:15;;;;;;;6.43;1.00;;;;;;;14.73;92.45;101026.97;4993862;28;20603;-63
2022/05/22 03:51:42;;;;;;;4.43;1.92;;;;;;;14.74;92.00;101036.66;4994614;28;20125;-64
2022/05/22 03:54:12;;;;;;;5.00;0.95;;;;;;;14.82;91.36;101039.06;4999605;28;20033;-64
2022/05/22 03:56:44;;;;;;;2.20;0.80;;;;;;;14.78;91.92;101034.75;4995198;28;20404;-63
2022/05/22 03:59:18;;;;;;;4.00;1.20;;;;;;;14.77;91.92;101033.22;4995666;28;20038;-64
2022/05/22 04:01:44;;;;;;;4.38;0.82;;;;;;;14.78;92.23;101037.47;4994064;28;20041;-63
2022/05/22 04:04:09;;;;;;;1.30;0.60;;;;;;;14.76;91.87;101023.50;4995855;28;20057;-63
2022/05/22 04:06:35;;;;;;;6.68;0.82;;;;;;;14.81;92.05;101031.28;5011634;28;20038;-64
2022/05/22 04:09:02;;;;;;;1.55;0.95;;;;;;;14.78;92.12;101029.34;4996106;28;20034;-64
2022/05/22 04:11:48;;;;;;;6.50;0.95;;;;;;;14.78;92.26;101019.28;5010718;28;20092;-64
2022/05/22 04:14:18;;;;;;;1.45;0.75;;;;;;;14.78;92.23;101030.13;4994630;28;20030;-64
2022/05/22 04:16:50;;;;;;;0.68;0.55;;;;;;;14.78;92.20;101026.63;4995379;28;20041;-64
2022/05/22 04:19:16;;;;;;;1.67;0.82;;;;;;;14.78;92.20;101029.34;5012343;28;20105;-64
2022/05/22 04:21:42;;;;;;;6.40;0.98;;;;;;;14.80;92.60;101029.75;4992355;28;20113;-64
2022/05/22 04:27:05;;;;;;;0.70;0.47;;;;;;;14.91;92.40;101033.31;5011780;28;20135;-64
2022/05/22 04:29:31;;;;;;;3.08;1.00;;;;;;;14.96;92.63;101027.56;4990728;28;20405;-66
2022/05/22 04:31:57;;;;;;;1.77;1.00;;;;;;;14.99;92.53;101024.09;4994634;28;20358;-63
2022/05/22 04:34:31;;;;;;;2.47;0.70;;;;;;;15.04;92.61;101032.66;4994918;28;20092;-64
2022/05/22 04:37:06;;;;;;;3.75;1.15;;;;;;;15.12;92.63;101036.22;5013361;28;20340;-64
2022/05/22 04:39:40;;;;;;;0.98;0.60;;;;;;;15.24;92.11;101034.00;4987624;28;20034;-64
2022/05/22 04:42:06;;;;;;;3.53;0.98;;;;;;;15.22;92.20;101039.03;4994158;28;20157;-63
2022/05/22 04:44:32;;;;;;;1.00;0.63;;;;;;;15.28;92.50;101039.44;4995218;28;20034;-63
2022/05/22 04:47:18;;;;;;;0.85;0.60;;;;;;;15.28;92.40;101039.44;5002926;28;20056;-64
2022/05/22 04:50:01;;;;;;;5.47;0.77;;;;;;;15.37;92.13;101042.59;4993028;28;20523;-63
2022/05/22 04:52:27;;;;;;;4.28;1.10;;;;;;;15.42;91.99;101031.44;4994913;28;20069;-64
2022/05/22 04:54:52;;;;;;;1.08;0.88;;;;;;;15.54;91.67;101038.50;4994046;28;20512;-64
2022/05/22 04:57:18;;;;;;;3.45;1.88;;;;;;;15.63;90.99;101050.59;4995396;28;20057;-64
2022/05/22 04:59:44;;;;;;;0.60;0.50;;;;;;;15.69;91.02;101037.41;4993913;28;20033;-63
2022/05/22 05:02:10;;;;;;;1.30;0.80;;;;;;;15.70;90.96;101033.56;4990971;28;20488;-64
2022/05/22 05:04:55;;;;;;;3.75;1.25;;;;;;;15.75;90.15;101038.63;5010172;28;20041;-63
2022/05/22 05:07:25;;;;;;;;;;;;;;;15.68;90.86;101033.16;5011607;28;20037;-64
2022/05/22 05:09:51;;;;;;;2.90;1.60;;;;;;;15.67;90.77;101045.97;5012013;28;19914;-64
2022/05/22 05:12:46;;;;;;;1.05;0.77;;;;;;;15.63;90.99;101044.38;5005142;28;20392;-64
2022/05/22 05:15:24;;;;;;;0.70;0.68;;;;;;;15.65;90.72;101052.91;4993634;28;20124;-64
2022/05/22 05:17:56;;;;;;;1.58;1.13;;;;;;;15.66;90.64;101054.50;4994607;28;20091;-64
2022/05/22 05:20:24;;;;;;;1.05;0.70;;;;;;;15.65;90.96;101053.69;5009694;22;20082;-63
2022/05/22 05:22:53;;;;;;;8.77;0.98;;;;;;;15.67;90.74;101043.25;5011719;28;20035;-60
2022/05/22 05:25:29;;;;;;;3.97;1.27;;;;;;;15.70;91.09;101058.75;5010433;28;20030;-61
2022/05/22 05:27:55;;;;;;;4.43;0.80;;;;;;;15.77;90.84;101058.81;4994610;28;20030;-61
2022/05/22 05:30:22;;;;;;;0.90;0.70;;;;;;;15.80;90.52;101060.78;4990781;28;20436;-60
2022/05/22 05:32:47;;;;;;;1.77;1.13;;;;;;;15.77;90.75;101050.69;4993542;28;20028;-60
2022/05/22 05:35:33;;;;;;;0.80;0.60;;;;;;;15.81;90.34;101051.47;5008150;28;20068;-61
2022/05/22 05:38:01;;;;;;;6.38;1.00;;;;;;;15.84;90.34;101056.13;4988282;28;20065;-59
2022/05/22 05:40:30;;;;;;;1.42;1.10;;;;;;;15.85;90.03;101051.50;5026947;28;20029;-62
2022/05/22 05:42:57;;;;;;;1.02;0.70;;;;;;;15.83;89.78;101057.28;5011472;28;20037;-61
2022/05/22 05:45:24;;;;;;;1.30;0.75;;;;;;;15.78;90.18;101063.09;5025904;28;20049;-61
2022/05/22 05:47:52;;;;;;;1.85;0.85;;;;;;;15.82;89.76;101053.03;4991967;28;20480;-61
2022/05/22 05:50:42;;;;;;;1.10;1.00;;;;;;;15.77;90.23;101058.81;4994206;28;20176;-61
2022/05/22 05:53:36;;;;;;;6.43;0.98;;;;;;;15.84;89.91;101058.06;5000430;28;20045;-62
2022/05/22 05:56:39;;;;;;;1.27;0.60;;;;;;;15.86;89.63;101055.75;4981869;28;20065;-63
2022/05/22 05:59:33;;;;;;;1.38;0.65;;;;;;;15.87;89.73;101057.31;4995573;28;20038;-60
2022/05/22 06:02:16;;;;;;;3.50;0.98;;;;;;;15.93;89.61;101050.38;5026526;28;20045;-61
2022/05/22 06:04:42;;;;;;;3.85;0.85;;;;;;;16.00;89.03;101059.34;5012889;28;20052;-62
2022/05/22 06:07:09;;;;;;;1.42;0.80;;;;;;;16.01;88.91;101050.00;4992985;28;20053;-61
2022/05/22 06:09:35;;;;;;;0.90;0.70;;;;;;;16.02;88.72;101048.88;5026376;28;20029;-62
2022/05/22 06:12:20;;;;;;;2.25;0.77;;;;;;;15.98;88.91;101056.22;5011360;28;20133;-64
2022/05/22 06:14:56;;;;;;;1.95;1.50;;;;;;;16.04;88.78;101049.25;5018003;28;20063;-62
2022/05/22 06:17:33;;;;;;;0.60;0.60;;;;;;;16.13;88.50;101038.03;5011106;28;20101;-61
2022/05/22 06:20:00;;;;;;;1.58;0.93;;;;;;;16.13;88.40;101038.03;4993516;28;20408;-61
2022/05/22 06:22:30;;;;;;;1.13;0.80;;;;;;;16.15;88.26;101049.28;4984879;28;20030;-64
2022/05/22 06:24:58;;;;;;;0.95;0.65;;;;;;;16.12;87.66;101045.38;4987706;28;20412;-63
2022/05/22 06:27:43;;;;;;;1.40;0.90;;;;;;;16.06;88.21;101046.94;5011146;28;20049;-65
2022/05/22 06:30:43;;;;;;;2.00;0.57;;;;;;;16.11;87.83;101043.06;5007628;28;20046;-61
2022/05/22 06:33:29;;;;;;;5.80;0.70;;;;;;;16.10;88.01;101052.38;5006310;28;20052;-62
2022/05/22 06:36:22;;;;;;;1.05;0.70;;;;;;;16.18;87.83;101041.16;5000894;28;20107;-61
2022/05/22 06:42:19;;;;;;;1.67;0.60;;;;;;;16.35;87.69;101047.03;4997838;28;20111;-63
2022/05/22 06:45:09;;;;;;;0.80;0.80;;;;;;;16.60;86.75;101045.19;5010372;28;20045;-62
2022/05/22 06:47:38;;;;;;;5.97;1.08;;;;;;;16.77;85.71;101044.44;5003410;28;20042;-60
2022/05/22 06:50:32;;;;;;;2.40;0.88;;;;;;;16.86;84.50;101034.72;4992262;28;20416;-64
2022/05/22 06:53:18;;;;;;;1.73;0.85;;;;;;;16.87;84.62;101040.97;4980300;28;20104;-61
2022/05/22 06:55:56;;;;;;;1.75;1.65;;;;;;;16.91;84.18;101036.28;5010477;28;20050;-64
2022/05/22 06:58:48;;;;;;;0.88;0.57;;;;;;;16.94;84.00;101049.91;5011179;28;20120;-63
2022/05/22 07:01:32;;;;;;;3.92;0.73;;;;;;;17.00;83.38;101042.91;5005649;28;20108;-61
2022/05/22 07:04:12;;;;;;;1.05;0.63;;;;;;;17.02;82.88;101053.41;4988076;28;20022;-59
2022/05/22 07:06:37;;;;;;;2.35;0.70;;;;;;;16.95;83.63;101048.75;5009737;28;20052;-63
2022/05/22 07:09:23;;;;;;;2.38;0.55;;;;;;;17.12;82.83;101049.91;4979773;28;20500;-58
2022/05/22 07:12:09;;;;;;;1.90;0.90;;;;;;;17.23;82.14;101047.94;4986135;28;20049;-63
2022/05/22 07:14:36;;;;;;;3.05;0.63;;;;;;;17.30;81.18;101047.97;4994188;28;20044;-64
2022/05/22 07:17:10;;;;;;;1.60;0.57;;;;;;;17.28;81.28;101053.03;5025135;28;20373;-64
2022/05/22 07:19:56;;;;;;;2.05;0.70;;;;;;;17.44;80.95;101052.63;4994457;28;20393;-64
2022/05/22 07:22:40;;;;;;;0.57;0.57;;;;;;;17.39;81.70;101053.00;5009829;28;20570;-64
2022/05/22 07:25:38;;;;;;;0.70;0.70;;;;;;;17.39;82.25;101053.78;4976078;28;20129;-63
2022/05/22 07:28:22;;;;;;;0.63;0.52;;;;;;;17.41;81.70;101050.66;5003209;28;20045;-64
2022/05/22 07:31:03;;;;;;;;;;;;;;;17.45;81.10;101054.16;4992952;28;20073;-62
2022/05/22 07:33:52;;;;;;;0.50;0.47;;;;;;;17.56;81.06;101047.56;4991942;28;19913;-61
2022/05/22 07:36:54;;;;;;;1.55;0.63;;;;;;;17.74;80.66;101048.31;4986775;28;20516;-62
2022/05/22 07:39:55;;;;;;;3.38;0.82;;;;;;;17.88;79.67;101047.50;4948836;29;20458;-64
2022/05/22 07:42:52;;;;;;;1.00;0.63;;;;;;;18.02;78.70;101042.00;4975702;28;20104;-61
2022/05/22 07:45:36;;;;;;;1.25;0.70;;;;;;;18.14;78.37;101038.06;5008918;28;20034;-65
2022/05/22 07:48:07;;;;;;;0.88;0.57;;;;;;;18.15;77.73;101029.47;5025043;28;20511;-64
2022/05/22 07:50:36;;;;;;;4.97;0.60;;;;;;;18.18;77.77;101041.53;4992222;28;20110;-61
2022/05/22 07:53:22;;;;;;;2.53;1.00;;;;;;;18.26;77.01;101038.38;4996169;28;20048;-63
2022/05/22 07:56:26;;;;;;;3.08;0.70;;;;;;;18.42;76.59;101036.00;4945930;28;20044;-62
2022/05/22 07:59:05;;;;;;;3.25;0.60;;;;;;;18.54;75.88;101032.03;4948958;29;20093;-62
2022/05/22 08:01:49;;;;;;;1.35;0.60;;;;;;;18.62;75.27;101033.53;4959801;28;20144;-62
2022/05/22 08:04:35;;;;;;;1.05;0.43;;;;;;;18.51;74.94;101039.06;4972188;28;20061;-63
2022/05/22 08:07:13;;;;;;;1.10;0.43;;;;;;;18.43;75.03;101042.19;4990006;28;20568;-60
2022/05/22 08:09:47;;;;;;;0.60;0.60;;;;;;;18.41;74.45;101028.94;5009343;28;20026;-60
2022/05/22 08:12:12;;;;;;;1.42;0.68;;;;;;;18.40;74.32;101032.06;5025000;28;20455;-62
2022/05/22 08:14:38;;;;;;;0.40;0.30;;;;;;;18.35;74.76;101037.94;5008747;28;20457;-60
2022/05/22 08:17:04;;;;;;;0.80;0.57;;;;;;;18.45;73.95;101028.94;5022664;28;20030;-62
2022/05/22 08:19:30;;;;;;;1.40;0.60;;;;;;;18.68;74.65;101035.44;4989631;28;20104;-64
2022/05/22 08:22:10;;;;;;;0.65;0.40;;;;;;;19.00;73.10;101031.69;5005226;28;20034;-65
2022/05/22 08:24:54;;;;;;;0.88;0.40;;;;;;;19.28;72.15;101023.28;4986453;28;20096;-62
2022/05/22 08:27:22;;;;;;;1.55;0.82;;;;;;;19.57;69.71;101019.88;5005575;28;20030;-64
2022/05/22 08:29:48;;;;;;;0.65;0.47;;;;;;;19.80;64.56;101025.47;5009109;28;20026;-61
2022/05/22 08:32:13;;;;;;;0.40;0.20;;;;;;;19.88;64.86;101028.13;4996846;28;20459;-62
2022/05/22 08:34:38;;;;;;;0.38;0.30;;;;;;;20.05;62.14;101014.25;5009764;28;20041;-62
2022/05/22 08:37:04;;;;;;;0.73;0.25;;;;;;;20.23;62.35;101017.53;5013265;28;20080;-62
2022/05/22 08:39:29;;;;;;;1.30;0.40;;;;;;;20.38;59.79;101015.41;5009399;28;20085;-62
2022/05/22 08:41:58;;;;;;;0.45;0.20;;;;;;;20.57;59.54;101022.94;5012195;28;20041;-63
2022/05/22 08:44:32;;;;;;;0.63;0.20;;;;;;;20.65;58.36;101014.19;5012809;28;20484;-63
2022/05/22 08:47:01;;;;;;;0.22;0.20;;;;;;;20.72;58.02;101023.50;5013158;28;20042;-62
2022/05/22 08:49:47;;;;;;;0.30;0.30;;;;;;;20.86;57.13;101031.50;5004415;28;20065;-62
2022/05/22 08:52:50;;;;;;;0.22;0.13;;;;;;;20.72;57.65;101027.00;5013199;28;20037;-61
2022/05/22 08:55:21;;;;;;;2.33;0.25;;;;;;;20.45;58.93;101026.25;5007774;28;20030;-61
2022/05/22 09:00:47;;;;;;;0.98;0.45;;;;;;;20.27;59.92;101022.97;5011567;28;20037;-59
2022/05/22 09:03:24;;;;;;;0.20;0.20;;;;;;;20.11;60.36;101029.00;5000755;28;20034;-62
2022/05/22 09:05:54;;;;;;;0.38;0.13;;;;;;;20.00;61.13;101028.34;5007295;28;20065;-61
2022/05/22 09:08:50;;;;;;;2.83;0.50;;;;;;;19.83;61.64;101034.81;5012551;28;20041;-63
2022/05/22 09:11:30;;;;;;;0.30;0.25;;;;;;;19.71;62.68;101027.13;5012516;28;20504;-63
2022/05/22 09:14:09;;;;;;;0.88;0.65;;;;;;;19.66;63.29;101033.84;5007311;28;20080;-61
2022/05/22 09:16:46;;;;;;;3.92;0.30;;;;;;;19.72;63.25;101036.91;5011512;28;20045;-62
2022/05/22 09:19:21;;;;;;;1.85;0.40;;;;;;;19.98;63.17;101024.47;5012403;28;20107;-62
2022/05/22 09:21:58;;;;;;;0.22;0.22;;;;;;;20.51;63.66;101028.13;5006371;28;20048;-62
2022/05/22 09:24:31;;;;;;;2.28;1.10;;;;;;;21.00;61.31;101034.78;5001384;28;20082;-61
2022/05/22 09:27:24;;;;;;;0.98;0.30;;;;;;;21.21;59.31;101034.47;4989143;28;20038;-62
2022/05/22 09:30:22;;;;;;;0.22;0.20;;;;;;;21.40;58.41;101036.47;4986872;28;20439;-63
2022/05/22 09:32:53;;;;;;;0.30;0.30;;;;;;;21.55;57.76;101034.25;4988269;28;20046;-62
2022/05/22 09:35:50;;;;;;;2.70;0.40;;;;;;;21.61;56.84;101035.31;5010145;28;20507;-62
2022/05/22 09:38:31;;;;;;;0.20;0.20;;;;;;;21.88;56.78;101032.47;5012389;28;20034;-61
2022/05/22 09:41:24;;;;;;;1.07;0.30;;;;;;;22.21;55.42;101034.91;4992942;28;20061;-63
2022/05/22 09:44:19;;;;;;;0.22;0.22;;;;;;;22.19;53.40;101028.28;4991956;28;20324;-61
2022/05/22 09:47:11;;;;;;;0.20;0.20;;;;;;;22.36;55.00;101032.63;4989128;28;20033;-62
2022/05/22 09:49:39;;;;;;;0.10;0.10;;;;;;;22.28;54.35;101017.50;4983059;28;20054;-62
2022/05/22 09:52:12;;;;;;;0.20;0.20;;;;;;;22.28;53.72;101028.47;4992490;28;20042;-64
2022/05/22 09:54:40;;;;;;;2.10;0.30;;;;;;;22.32;52.60;101029.19;5002780;28;20140;-62
2022/05/22 09:57:21;;;;;;;1.00;0.30;;;;;;;22.08;52.52;101025.78;5011702;28;20083;-62
2022/05/22 10:00:11;;;;;;;1.08;0.20;;;;;;;21.75;53.00;101020.56;5010553;28;20111;-61
2022/05/22 10:02:52;;;;;;;0.20;0.10;;;;;;;21.69;54.29;101024.97;5008103;28;20392;-62
2022/05/22 10:05:45;;;;;;;1.15;0.50;;;;;;;21.62;53.30;101019.63;5010095;28;20049;-62
2022/05/22 10:08:35;;;;;;;0.10;0.10;;;;;;;21.55;52.78;101023.28;4991977;28;20117;-62
2022/05/22 10:11:06;;;;;;;0.10;0.10;;;;;;;21.39;54.18;101020.44;4992498;28;20129;-61
2022/05/22 10:13:47;;;;;;;3.38;0.32;;;;;;;21.58;54.46;101020.47;4994207;28;20096;-62
2022/05/22 10:16:32;;;;;;;1.25;0.35;;;;;;;22.02;51.79;101015.72;5010234;28;20045;-64
2022/05/22 10:19:07;;;;;;;0.10;0.10;;;;;;;22.12;52.55;101010.03;4993419;28;20551;-62
2022/05/22 10:22:10;;;;;;;0.50;0.20;;;;;;;22.46;52.11;101009.66;5006167;28;20040;-62
2022/05/22 10:24:55;;;;;;;0.30;0.30;;;;;;;22.73;52.00;101004.72;4992092;28;20481;-64
2022/05/22 10:27:34;;;;;;;0.28;0.20;;;;;;;22.93;50.90;101008.19;5011516;28;20092;-63
2022/05/22 10:30:10;;;;;;;0.30;0.20;;;;;;;22.99;51.34;101000.19;5005379;28;20034;-62
2022/05/22 10:32:48;;;;;;;0.00;0.00;;;;;;;23.06;50.60;101003.53;5003768;28;20045;-62
2022/05/22 10:35:25;;;;;;;0.17;0.17;;;;;;;22.94;50.30;101000.69;5009854;28;20065;-62
2022/05/22 10:38:08;;;;;;;1.02;0.20;;;;;;;22.99;50.23;101000.97;5006824;28;20037;-63
2022/05/22 10:43:17;;;;;;;0.17;0.10;;;;;;;23.43;48.35;100999.44;5010569;28;20037;-63
2022/05/22 10:45:43;;;;;;;0.95;0.15;;;;;;;23.56;47.84;101000.25;5010271;28;20103;-63
2022/05/22 10:48:23;;;;;;;0.10;0.10;;;;;;;23.28;46.85;100998.25;5003227;28;20085;-63
2022/05/22 10:50:51;;;;;;;1.15;0.43;;;;;;;23.02;48.23;100994.59;4995520;28;20040;-61
2022/05/22 10:53:40;;;;;;;4.07;0.20;;;;;;;22.78;49.54;100997.97;5010121;28;20117;-60
2022/05/22 10:56:14;;;;;;;0.30;0.30;;;;;;;23.06;50.64;101005.50;5010146;28;20088;-62
2022/05/22 10:59:19;;;;;;;0.30;0.10;;;;;;;23.16;48.42;100994.25;5009769;28;20048;-65
2022/05/22 11:01:58;;;;;;;0.52;0.20;;;;;;;22.98;48.01;100991.16;5004552;28;20049;-64
2022/05/22 11:04:36;;;;;;;0.20;0.13;;;;;;;22.85;47.85;100989.53;5006203;28;20120;-64
2022/05/22 11:07:02;;;;;;;0.22;0.05;;;;;;;22.67;48.25;100989.97;5009567;28;20116;-64
2022/05/22 11:09:30;;;;;;;0.20;0.15;;;;;;;22.42;49.10;100987.78;5010549;28;20033;-65
2022/05/22 11:12:11;;;;;;;0.57;0.35;;;;;;;22.48;49.29;100992.75;5007711;28;20041;-64
2022/05/22 11:14:37;;;;;;;0.43;0.43;;;;;;;22.28;48.79;100984.56;5002650;28;20396;-64
2022/05/22 11:17:19;;;;;;;0.75;0.30;;;;;;;22.13;49.33;100977.84;5010086;28;20034;-63
2022/05/22 11:19:48;;;;;;;0.10;0.10;;;;;;;22.39;49.83;100972.16;5008438;28;20041;-61
2022/05/22 11:22:31;;;;;;;0.68;0.10;;;;;;;22.72;49.81;100964.75;4998536;28;20034;-62
2022/05/22 11:25:09;;;;;;;0.17;0.10;;;;;;;22.97;47.51;100967.66;5009342;28;20527;-63
2022/05/22 11:28:04;;;;;;;0.08;0.08;;;;;;;23.20;45.40;100953.69;5010433;28;20042;-62
2022/05/22 11:30:43;;;;;;;0.10;0.08;;;;;;;23.63;44.07;100958.03;5011756;28;20133;-65
2022/05/22 11:33:21;;;;;;;3.00;0.17;;;;;;;23.67;46.65;100962.25;4997836;28;20033;-60
2022/05/22 11:36:08;;;;;;;0.10;0.10;;;;;;;23.77;47.17;100949.38;5009480;28;20439;-62
2022/05/22 11:38:39;;;;;;;0.00;0.00;;;;;;;23.66;47.02;100943.41;5010371;28;20477;-61
2022/05/22 11:41:27;;;;;;;0.10;0.10;;;;;;;23.53;46.40;100935.13;4997782;28;20041;-62
2022/05/22 11:44:18;;;;;;;0.57;0.17;;;;;;;23.63;47.06;100944.28;4989744;28;20038;-62
2022/05/22 11:46:59;;;;;;;0.20;0.13;;;;;;;23.73;47.04;100934.97;4993879;28;20124;-62
2022/05/22 11:49:48;;;;;;;0.93;0.20;;;;;;;23.75;46.63;100940.81;4992195;28;20499;-62
2022/05/22 11:55:12;;;;;;;0.10;0.10;;;;;;;23.58;45.72;100929.09;5004898;28;20083;-63
2022/05/22 11:57:47;;;;;;;0.30;0.17;;;;;;;23.55;45.91;100927.22;5024233;28;20080;-64
2022/05/22 12:00:23;;;;;;;0.55;0.20;;;;;;;23.45;46.14;100922.00;5009785;28;20065;-63
2022/05/22 12:02:55;;;;;;;0.00;0.00;;;;;;;23.42;46.10;100929.16;5003778;28;20037;-63
2022/05/22 12:05:58;;;;;;;1.65;0.20;;;;;;;23.42;46.04;100922.88;5009286;28;20037;-62
2022/05/22 12:08:42;;;;;;;1.27;0.20;;;;;;;23.60;45.06;100921.16;5010281;28;20037;-62
2022/05/22 12:11:24;;;;;;;0.00;0.00;;;;;;;23.51;45.16;100925.75;5005910;28;20029;-62
2022/05/22 12:14:07;;;;;;;0.00;0.00;;;;;;;-144.12;100.00;72078.50;5013006;28;20034;-63
2022/05/22 12:16:39;;;;;;;0.93;0.15;;;;;;;23.91;44.81;100921.44;5013353;28;20412;-60
2022/05/22 12:19:20;;;;;;;0.28;0.10;;;;;;;24.04;44.12;100922.25;5005067;28;20080;-63
2022/05/22 12:21:57;;;;;;;0.00;0.00;;;;;;;24.08;44.28;100923.66;5011928;28;20084;-60